createdAt,value
2018-11-07T00:02:17.322Z,9.00
2018-11-07T00:05:21.652Z,8.90
2018-11-07T00:08:25.927Z,8.90
2018-11-07T00:11:30.232Z,8.80
2018-11-07T00:14:34.484Z,8.70
2018-11-07T00:17:40.332Z,8.70
2018-11-07T00:20:45.462Z,8.60
2018-11-07T00:23:49.756Z,8.60
2018-11-07T00:26:54.772Z,8.60
2018-11-07T00:29:59.021Z,8.60
2018-11-07T00:33:03.358Z,8.60
2018-11-07T00:36:10.131Z,8.60
2018-11-07T00:39:14.431Z,8.50
2018-11-07T00:42:18.732Z,8.50
2018-11-07T00:45:22.964Z,8.50
2018-11-07T00:48:28.532Z,8.50
2018-11-07T00:51:32.863Z,8.50
2018-11-07T00:54:37.573Z,8.40
2018-11-07T00:57:43.744Z,8.50
2018-11-07T01:00:47.968Z,8.50
2018-11-07T01:03:52.652Z,8.50
2018-11-07T01:06:57.076Z,8.60
2018-11-07T01:10:02.535Z,8.60
2018-11-07T01:13:06.792Z,8.70
2018-11-07T01:16:11.102Z,8.70
2018-11-07T01:19:15.443Z,8.80
2018-11-07T01:22:20.953Z,8.80
2018-11-07T01:25:25.203Z,8.80
2018-11-07T01:28:29.714Z,8.80
2018-11-07T01:31:34.054Z,8.90
2018-11-07T01:34:38.371Z,8.90
2018-11-07T01:37:42.674Z,9.00
2018-11-07T01:40:46.886Z,9.00
2018-11-07T01:43:51.093Z,9.00
2018-11-07T01:46:55.762Z,9.00
2018-11-07T01:49:59.994Z,9.10
2018-11-07T01:53:04.353Z,9.10
2018-11-07T01:56:08.625Z,9.10
2018-11-07T01:59:13.979Z,9.10
2018-11-07T02:02:18.323Z,9.10
2018-11-07T02:05:22.587Z,9.10
2018-11-07T02:08:30.006Z,9.10
2018-11-07T02:11:34.319Z,9.10
2018-11-07T02:14:38.633Z,9.20
2018-11-07T02:17:43.981Z,8.90
2018-11-07T02:20:48.311Z,9.20
2018-11-07T02:23:54.004Z,9.20
2018-11-07T02:26:58.287Z,9.20
2018-11-07T02:30:03.109Z,9.20
2018-11-07T02:33:07.680Z,9.20
2018-11-07T02:36:11.965Z,9.30
2018-11-07T02:39:16.542Z,9.20
2018-11-07T02:42:20.805Z,9.20
2018-11-07T02:45:25.142Z,9.20
2018-11-07T02:48:29.443Z,9.20
2018-11-07T02:51:34.695Z,9.20
2018-11-07T02:54:39.023Z,9.20
2018-11-07T02:57:44.495Z,9.20
2018-11-07T03:00:48.774Z,9.30
2018-11-07T03:03:53.163Z,9.30
2018-11-07T03:06:57.449Z,9.30
2018-11-07T03:10:02.929Z,9.30
2018-11-07T03:13:07.213Z,9.30
2018-11-07T03:16:12.835Z,9.30
2018-11-07T03:19:18.245Z,9.30
2018-11-07T03:22:22.530Z,9.30
2018-11-07T03:25:26.801Z,9.30
2018-11-07T03:28:31.071Z,9.30
2018-11-07T03:31:35.385Z,9.30
2018-11-07T03:34:39.688Z,9.30
2018-11-07T03:37:44.004Z,9.40
2018-11-07T03:40:48.256Z,9.30
2018-11-07T03:43:52.568Z,9.40
2018-11-07T03:46:56.896Z,9.40
2018-11-07T03:50:01.211Z,9.40
2018-11-07T03:53:05.869Z,9.30
2018-11-07T03:56:10.156Z,9.30
2018-11-07T03:59:14.377Z,9.30
2018-11-07T04:02:18.699Z,9.30
2018-11-07T04:05:23.120Z,9.30
2018-11-07T04:08:28.062Z,9.40
2018-11-07T04:11:32.367Z,9.40
2018-11-07T04:14:36.593Z,9.40
2018-11-07T04:17:40.814Z,9.40
2018-11-07T04:20:45.043Z,9.50
2018-11-07T04:23:55.818Z,9.50
2018-11-07T04:27:00.124Z,9.50
2018-11-07T04:30:07.156Z,9.50
2018-11-07T04:33:11.436Z,9.50
2018-11-07T04:36:16.372Z,9.50
2018-11-07T04:39:20.667Z,9.60
2018-11-07T04:42:24.967Z,9.60
2018-11-07T04:45:29.198Z,9.60
2018-11-07T04:48:33.446Z,9.60
2018-11-07T04:51:37.775Z,9.70
2018-11-07T04:54:43.736Z,9.70
2018-11-07T04:57:48.037Z,9.70
2018-11-07T05:00:54.381Z,9.70
2018-11-07T05:03:59.226Z,9.70
2018-11-07T05:07:03.485Z,9.70
2018-11-07T05:10:09.813Z,9.70
2018-11-07T05:13:14.052Z,9.70
2018-11-07T05:16:18.290Z,9.80
2018-11-07T05:19:22.607Z,9.80
2018-11-07T05:22:26.914Z,9.80
2018-11-07T05:25:31.241Z,9.80
2018-11-07T05:28:38.776Z,9.80
2018-11-07T05:31:44.340Z,9.80
2018-11-07T05:34:48.619Z,9.90
2018-11-07T05:37:52.865Z,9.80
2018-11-07T05:40:58.438Z,9.80
2018-11-07T05:44:02.726Z,9.80
2018-11-07T05:47:07.257Z,9.70
2018-11-07T05:50:11.825Z,9.80
2018-11-07T05:53:16.340Z,9.80
2018-11-07T05:56:20.643Z,9.70
2018-11-07T05:59:24.932Z,9.70
2018-11-07T06:02:29.423Z,9.70
2018-11-07T06:05:36.635Z,9.70
2018-11-07T06:08:40.866Z,9.70
2018-11-07T06:11:45.178Z,9.70
2018-11-07T06:14:49.513Z,9.70
2018-11-07T06:17:55.241Z,9.70
2018-11-07T06:20:59.589Z,9.60
2018-11-07T06:24:03.898Z,9.60
2018-11-07T06:27:08.257Z,9.60
2018-11-07T06:30:13.318Z,9.60
2018-11-07T06:33:17.627Z,9.60
2018-11-07T06:36:21.892Z,9.50
2018-11-07T06:39:26.135Z,9.50
2018-11-07T06:42:30.468Z,9.50
2018-11-07T06:45:34.805Z,9.50
2018-11-07T06:48:39.106Z,9.50
2018-11-07T06:51:43.345Z,9.50
2018-11-07T06:54:47.626Z,9.50
2018-11-07T06:57:53.427Z,9.50
2018-11-07T07:00:57.701Z,9.50
2018-11-07T07:04:02.870Z,9.50
2018-11-07T07:07:07.159Z,9.50
2018-11-07T07:10:15.379Z,9.50
2018-11-07T07:13:19.618Z,9.50
2018-11-07T07:16:24.542Z,9.50
2018-11-07T07:19:28.865Z,9.60
2018-11-07T07:22:33.109Z,9.60
2018-11-07T07:25:37.347Z,9.60
2018-11-07T07:28:41.598Z,9.60
2018-11-07T07:31:45.840Z,9.70
2018-11-07T07:34:50.681Z,9.60
2018-11-07T07:37:56.125Z,9.60
2018-11-07T07:41:00.448Z,9.60
2018-11-07T07:44:08.278Z,9.60
2018-11-07T07:47:12.554Z,9.60
2018-11-07T07:50:18.272Z,9.50
2018-11-07T07:53:22.597Z,9.50
2018-11-07T07:56:26.874Z,9.50
2018-11-07T07:59:31.132Z,9.40
2018-11-07T08:02:35.407Z,9.40
2018-11-07T08:05:39.718Z,9.40
2018-11-07T08:08:43.940Z,9.30
2018-11-07T08:11:48.268Z,9.40
2018-11-07T08:14:52.687Z,9.40
2018-11-07T08:17:56.999Z,9.40
2018-11-07T08:21:01.375Z,9.40
2018-11-07T08:24:05.652Z,9.50
2018-11-07T08:27:09.974Z,9.50
2018-11-07T08:30:15.904Z,9.50
2018-11-07T08:33:20.260Z,9.70
2018-11-07T08:36:24.568Z,9.70
2018-11-07T08:39:28.887Z,9.80
2018-11-07T08:42:33.121Z,9.80
2018-11-07T08:45:37.472Z,9.90
2018-11-07T08:48:41.773Z,9.90
2018-11-07T08:51:46.446Z,9.80
2018-11-07T08:54:50.749Z,9.90
2018-11-07T08:57:55.085Z,9.90
2018-11-07T09:00:59.460Z,10.00
2018-11-07T09:04:03.733Z,10.00
2018-11-07T09:07:07.997Z,10.00
2018-11-07T09:10:13.500Z,10.10
2018-11-07T09:13:17.736Z,10.10
2018-11-07T09:16:22.297Z,10.10
2018-11-07T09:19:26.597Z,10.00
2018-11-07T09:22:32.299Z,10.00
2018-11-07T09:25:39.194Z,10.00
2018-11-07T09:28:44.099Z,9.90
2018-11-07T09:31:48.386Z,9.90
2018-11-07T09:34:53.090Z,9.90
2018-11-07T09:37:58.574Z,9.90
2018-11-07T09:41:03.411Z,10.00
2018-11-07T09:44:07.896Z,10.10
2018-11-07T09:47:13.580Z,10.20
2018-11-07T09:50:18.585Z,10.20
2018-11-07T09:53:24.833Z,10.20
2018-11-07T09:56:29.155Z,10.30
2018-11-07T09:59:33.481Z,10.30
2018-11-07T10:02:38.230Z,10.40
2018-11-07T10:05:42.660Z,10.40
2018-11-07T10:08:47.577Z,10.50
2018-11-07T10:11:51.821Z,10.60
2018-11-07T10:14:57.439Z,10.60
2018-11-07T10:18:01.748Z,10.70
2018-11-07T10:21:06.534Z,10.80
2018-11-07T10:24:10.923Z,10.90
2018-11-07T10:27:16.582Z,11.00
2018-11-07T10:30:21.789Z,11.10
2018-11-07T10:33:27.410Z,11.20
2018-11-07T10:36:31.763Z,11.20
2018-11-07T10:39:36.219Z,11.30
2018-11-07T10:42:40.457Z,11.30
2018-11-07T10:45:44.716Z,11.40
2018-11-07T10:48:49.078Z,11.50
2018-11-07T10:51:53.462Z,11.50
2018-11-07T10:54:57.698Z,11.50
2018-11-07T10:58:01.999Z,11.50
2018-11-07T11:01:11.759Z,11.50
2018-11-07T11:04:16.992Z,11.50
2018-11-07T11:07:22.970Z,11.60
2018-11-07T11:10:27.288Z,11.70
2018-11-07T11:13:31.606Z,11.80
2018-11-07T11:16:35.920Z,11.80
2018-11-07T11:19:40.245Z,11.90
2018-11-07T11:22:45.696Z,12.00
2018-11-07T11:25:49.982Z,12.00
2018-11-07T11:28:54.391Z,12.00
2018-11-07T11:31:58.636Z,12.10
2018-11-07T11:35:03.176Z,12.10
2018-11-07T11:38:07.654Z,12.20
2018-11-07T11:41:11.994Z,12.30
2018-11-07T11:44:16.252Z,12.40
2018-11-07T11:47:21.595Z,12.40
2018-11-07T11:50:25.936Z,12.50
2018-11-07T11:53:30.744Z,12.60
2018-11-07T11:56:35.087Z,12.60
2018-11-07T11:59:39.677Z,12.70
2018-11-07T12:02:44.176Z,12.70
2018-11-07T12:05:48.443Z,12.80
2018-11-07T12:08:53.442Z,12.90
2018-11-07T12:11:57.754Z,12.90
2018-11-07T12:15:02.069Z,13.00
2018-11-07T12:18:06.461Z,13.00
2018-11-07T12:21:10.832Z,13.10
2018-11-07T12:24:16.095Z,13.10
2018-11-07T12:27:20.637Z,13.10
2018-11-07T12:30:25.124Z,13.10
2018-11-07T12:33:29.388Z,13.10
2018-11-07T12:36:33.732Z,13.20
2018-11-07T12:39:37.928Z,13.20
2018-11-07T12:42:42.234Z,13.20
2018-11-07T12:45:46.484Z,13.10
2018-11-07T12:48:50.791Z,13.20
2018-11-07T12:51:55.100Z,13.30
2018-11-07T12:54:59.429Z,13.30
2018-11-07T12:58:03.853Z,13.30
2018-11-07T13:01:07.985Z,13.40
2018-11-07T13:04:13.661Z,13.40
2018-11-07T13:07:17.944Z,13.40
2018-11-07T13:10:23.687Z,13.40
2018-11-07T13:13:33.794Z,13.50
2018-11-07T13:16:38.292Z,13.40
2018-11-07T13:19:43.994Z,13.40
2018-11-07T13:22:51.735Z,13.50
2018-11-07T13:25:57.520Z,13.40
2018-11-07T13:29:04.548Z,13.40
2018-11-07T13:32:10.732Z,13.40
2018-11-07T13:35:17.539Z,13.50
2018-11-07T13:38:25.531Z,13.50
2018-11-07T13:41:34.207Z,13.50
2018-11-07T13:44:38.475Z,13.40
2018-11-07T13:47:45.413Z,13.40
2018-11-07T13:50:49.683Z,13.40
2018-11-07T13:53:54.385Z,13.40
2018-11-07T13:57:01.088Z,13.30
2018-11-07T14:00:08.868Z,13.30
2018-11-07T14:03:13.225Z,13.20
2018-11-07T14:06:17.558Z,13.10
2018-11-07T14:09:21.967Z,13.10
2018-11-07T14:12:26.294Z,13.00
2018-11-07T14:15:30.706Z,12.90
2018-11-07T14:18:35.085Z,12.80
2018-11-07T14:21:39.979Z,12.80
2018-11-07T14:24:44.402Z,12.70
2018-11-07T14:27:48.868Z,12.60
2018-11-07T14:30:53.058Z,12.50
2018-11-07T14:33:57.335Z,12.40
2018-11-07T14:37:01.672Z,12.40
2018-11-07T14:40:06.458Z,12.30
2018-11-07T14:43:10.748Z,12.20
2018-11-07T14:46:15.283Z,12.10
2018-11-07T14:49:19.720Z,12.00
2018-11-07T14:52:23.991Z,12.00
2018-11-07T14:55:28.870Z,11.90
2018-11-07T14:58:33.160Z,11.80
2018-11-07T15:01:37.538Z,11.80
2018-11-07T15:04:41.886Z,11.70
2018-11-07T15:07:46.366Z,11.60
2018-11-07T15:10:50.645Z,11.50
2018-11-07T15:13:54.925Z,11.50
2018-11-07T15:16:59.189Z,11.40
2018-11-07T15:20:03.650Z,11.30
2018-11-07T15:23:08.037Z,11.20
2018-11-07T15:26:12.373Z,11.10
2018-11-07T15:29:16.676Z,11.00
2018-11-07T15:32:21.235Z,10.90
2018-11-07T15:35:25.556Z,10.80
2018-11-07T15:38:30.492Z,10.70
2018-11-07T15:41:34.767Z,10.60
2018-11-07T15:44:40.331Z,10.50
2018-11-07T15:47:44.715Z,10.50
2018-11-07T15:50:54.123Z,10.50
2018-11-07T15:53:58.411Z,10.40
2018-11-07T15:57:02.750Z,10.40
2018-11-07T16:00:10.857Z,10.30
2018-11-07T16:03:19.268Z,10.30
2018-11-07T16:06:23.781Z,10.20
2018-11-07T16:09:28.095Z,10.20
2018-11-07T16:12:32.349Z,10.10
2018-11-07T16:15:36.759Z,10.10
2018-11-07T16:18:40.981Z,10.10
2018-11-07T16:21:45.249Z,10.00
2018-11-07T16:24:49.608Z,10.00
2018-11-07T16:27:55.214Z,9.90
2018-11-07T16:31:00.311Z,9.90
2018-11-07T16:34:05.675Z,9.90
2018-11-07T16:37:09.933Z,9.80
2018-11-07T16:40:15.488Z,9.80
2018-11-07T16:43:19.749Z,9.80
2018-11-07T16:46:24.015Z,9.70
2018-11-07T16:49:28.283Z,9.70
2018-11-07T16:52:33.123Z,9.60
2018-11-07T16:55:37.371Z,9.60
2018-11-07T16:58:41.625Z,9.60
2018-11-07T17:01:45.991Z,9.50
2018-11-07T17:04:51.713Z,9.50
2018-11-07T17:07:56.951Z,9.40
2018-11-07T17:11:01.337Z,9.40
2018-11-07T17:14:06.044Z,9.30
2018-11-07T17:17:10.321Z,9.20
2018-11-07T17:20:15.789Z,9.20
2018-11-07T17:23:20.044Z,9.10
2018-11-07T17:26:24.345Z,9.00
2018-11-07T17:29:28.630Z,9.00
2018-11-07T17:32:32.954Z,9.00
2018-11-07T17:35:37.178Z,8.90
2018-11-07T17:38:41.586Z,8.90
2018-11-07T17:41:45.883Z,8.80
2018-11-07T17:44:50.199Z,8.80
2018-11-07T17:47:54.761Z,8.80
2018-11-07T17:50:58.955Z,8.80
2018-11-07T17:54:03.821Z,8.70
2018-11-07T17:57:08.081Z,8.70
2018-11-07T18:00:15.162Z,8.70
2018-11-07T18:03:19.425Z,8.80
2018-11-07T18:06:23.729Z,8.70
2018-11-07T18:09:28.004Z,8.60
2018-11-07T18:12:32.515Z,8.50
2018-11-07T18:15:37.590Z,8.50
2018-11-07T18:18:42.954Z,8.40
2018-11-07T18:21:47.267Z,8.40
2018-11-07T18:24:51.567Z,8.40
2018-11-07T18:27:55.841Z,8.30
2018-11-07T18:31:00.110Z,8.30
2018-11-07T18:34:04.389Z,8.20
2018-11-07T18:37:09.067Z,8.10
2018-11-07T18:40:15.699Z,8.00
2018-11-07T18:43:19.977Z,8.00
2018-11-07T18:46:24.317Z,7.90
2018-11-07T18:49:28.714Z,7.80
2018-11-07T18:52:33.047Z,7.70
2018-11-07T18:55:37.459Z,7.70
2018-11-07T18:58:42.878Z,7.60
2018-11-07T19:01:48.152Z,7.50
2018-11-07T19:04:52.737Z,7.50
2018-11-07T19:07:58.253Z,7.40
2018-11-07T19:11:02.569Z,7.40
2018-11-07T19:14:07.445Z,7.40
2018-11-07T19:17:11.833Z,7.40
2018-11-07T19:20:17.653Z,7.40
2018-11-07T19:23:22.976Z,7.40
2018-11-07T19:26:27.273Z,7.40
2018-11-07T19:29:34.127Z,7.40
2018-11-07T19:32:39.412Z,7.40
2018-11-07T19:35:43.823Z,7.30
2018-11-07T19:38:48.609Z,7.30
2018-11-07T19:41:52.964Z,7.30
2018-11-07T19:44:57.392Z,7.20
2018-11-07T19:48:01.824Z,7.20
2018-11-07T19:51:07.831Z,7.20
2018-11-07T19:54:12.374Z,7.20
2018-11-07T19:57:17.433Z,7.20
2018-11-07T20:00:23.673Z,7.10
2018-11-07T20:03:31.293Z,7.20
2018-11-07T20:06:37.778Z,7.20
2018-11-07T20:09:43.533Z,7.20
2018-11-07T20:12:51.940Z,7.30
2018-11-07T20:15:56.997Z,7.40
2018-11-07T20:19:01.423Z,7.40
2018-11-07T20:22:06.716Z,7.50
2018-11-07T20:25:13.053Z,7.50
2018-11-07T20:28:19.835Z,7.50
2018-11-07T20:31:25.564Z,7.50
2018-11-07T20:37:02.304Z,7.30
2018-11-07T20:40:11.604Z,7.20
2018-11-07T20:43:16.059Z,7.10
2018-11-07T20:46:22.288Z,7.10
2018-11-07T20:49:26.705Z,7.00
2018-11-07T20:52:32.672Z,7.00
2018-11-07T20:55:37.909Z,7.10
2018-11-07T20:58:42.637Z,7.20
2018-11-07T21:01:46.983Z,7.30
2018-11-07T21:04:51.622Z,7.40
2018-11-07T21:07:56.242Z,7.40
2018-11-07T21:11:00.626Z,7.50
2018-11-07T21:14:05.682Z,7.50
2018-11-07T21:17:10.456Z,7.60
2018-11-07T21:20:15.761Z,7.60
2018-11-07T21:23:20.805Z,7.60
2018-11-07T21:26:25.351Z,7.50
2018-11-07T21:29:29.611Z,7.50
2018-11-07T21:32:33.877Z,7.40
2018-11-07T21:35:38.131Z,7.40
2018-11-07T21:38:42.509Z,7.30
2018-11-07T21:41:46.795Z,7.30
2018-11-07T21:44:52.478Z,7.30
2018-11-07T21:47:56.839Z,7.20
2018-11-07T21:51:03.330Z,7.30
2018-11-07T21:54:07.673Z,7.30
2018-11-07T21:57:12.010Z,7.30
2018-11-07T22:00:19.769Z,7.20
2018-11-07T22:03:24.113Z,7.20
2018-11-07T22:06:28.441Z,7.20
2018-11-07T22:09:33.435Z,7.10
2018-11-07T22:12:37.923Z,7.10
2018-11-07T22:15:42.915Z,7.10
2018-11-07T22:18:47.362Z,7.10
2018-11-07T22:21:51.665Z,7.10
2018-11-07T22:24:55.989Z,7.10
2018-11-07T22:28:00.333Z,7.10
2018-11-07T22:31:06.092Z,7.10
2018-11-07T22:34:10.359Z,7.10
2018-11-07T22:37:16.067Z,7.10
2018-11-07T22:40:20.950Z,7.00
2018-11-07T22:43:26.578Z,7.00
2018-11-07T22:46:30.805Z,7.00
2018-11-07T22:49:37.022Z,7.10
2018-11-07T22:52:44.500Z,7.10
2018-11-07T22:55:50.656Z,7.10
2018-11-07T22:58:59.863Z,7.20
2018-11-07T23:02:06.458Z,7.30
2018-11-07T23:05:12.715Z,7.40
2018-11-07T23:08:17.852Z,7.40
2018-11-07T23:11:23.246Z,7.50
2018-11-07T23:14:27.989Z,7.50
2018-11-07T23:17:32.296Z,7.50
2018-11-07T23:20:37.270Z,7.50
2018-11-07T23:23:41.546Z,7.50
2018-11-07T23:26:46.800Z,7.50
2018-11-07T23:29:51.124Z,7.60
2018-11-07T23:32:56.256Z,7.60
2018-11-07T23:36:00.444Z,7.60
2018-11-07T23:39:07.532Z,7.70
2018-11-07T23:42:14.552Z,7.70
2018-11-07T23:45:18.871Z,7.70
2018-11-07T23:48:23.228Z,7.80
2018-11-07T23:51:29.044Z,7.90
2018-11-07T23:54:33.377Z,8.00
2018-11-07T23:57:39.354Z,8.00
